Aeroporto :
LOGIN :

Iscrizione | Disclaimer

   EN    FR    IT 

 










Sommario :    VFR   VFR Marginale   IFR   IFR Intensivo   IFR Molto Intensivo
Visibilità : 
Base nubi : 
>= 8 km
>= 3000ft
5 / 8 km
1000 / 3000 ft
1500m / 5 km
500 / 1000 ft
800 / 1500m
200 / 500 ft
< 800m
< 200 ft
Simboli :   Temporali  Nebbia  Neve Forte  Precipitazioni Forti  Vento > 20 kt
SIGMETs :   Varie  Temporali  Ghiacco  Turbolenza  Onda orograficha  Ceneri Vulcaniche






- Altitudine del aeroporto : 37 ft
- Codice IATA : OLB


LIEO - Olbia Costa Smeralda

ULTIMO METAR :
  • 240620Z 24017KT CAVOK 12/06 Q1007

METARs OBSOLETI :
  • 240550Z 24015KT CAVOK 10/06 Q1007
  • 240520Z 24017KT CAVOK 09/06 Q1007
  • 240450Z 24014KT CAVOK 08/05 Q1007
  • 240420Z 24012KT CAVOK 08/05 Q1007
  • 240350Z 24015KT 9999 FEW050 08/05 Q1007
  • 240320Z 23013KT 9999 FEW040 08/05 Q1007
  • 240250Z 22010KT 9999 -RA FEW040 08/06 Q1007
  • 240220Z 22011KT 9999 -RA SCT030 08/06 Q1008 RERA
  • 240150Z 23014KT 9999 RA SCT040 08/06 Q1008

TAF TAF LIEO
Valido dal 24 a 06 ore il 25 a 06 ore UTC


240500Z 2406/2506 25016KT 9999 SCT030
TEMPO 2406/2409 SHRA
BECMG 2406/2408 27022G34KT



MetMap, La meteo Aeronautica in un colpo d'occhio ! - Copyright ORBIFLY Dicembre 2007 - Disclaimer

ORBIFLY MET'MAP TEAM :

Programmazione e sviluppo : Alexandra Zaïnal
Concezione : Baudouin d'Aumeries
Supporto tecnico e logistico : Manuel Goepfert
Aiuto : Marc-Olivier Méhu
Aiuto per la traduzione : Arnaldo La Scala




FONTI E CREDITI :

   NOAA